Terminal Aerodrome Forecast
Issued by NWS

Home | Current Version | Previous Version | Text Only | Print | Product List | Glossary On
Versions: 1 2 3 4 5 6 7 8 9 10 11 12 13 14 15
000
FTUS43 KDTX 020528
TAFDET
TAF
KDET 020528Z 0206/0306 17008KT P6SM BKN200 WS010/23040KT
     FM021300 17012G20KT P6SM BKN060
     FM021500 19015G23KT P6SM -SHRA BKN045
     FM022000 22018G28KT 4SM -SHRA BKN025 OVC035
     FM030100 30012KT P6SM BKN100=

USA.gov is the U.S. government's official web portal to all federal, state and local government web resources and services.